Time;durP1;ratioP1;P1;durP2;ratioP2;P2;SDS_P1;SDS_P2;PMS_P1;PMS_P2;Temp;Humidity;BMP_temperature;BMP_pressure;BME280_temperature;BME280_humidity;BME280_pressure;Samples;Min_cycle;Max_cycle;Signal;HPM_P1;HPM_P2
2022/05/04 00:00:14;;;;;;;7.45;3.03;;;;;;;15.27;44.09;101876.72;5073292;28;20104;-65
2022/05/04 00:02:42;;;;;;;7.40;3.13;;;;;;;15.22;43.96;101864.91;5082904;28;20095;-65
2022/05/04 00:05:10;;;;;;;7.97;3.90;;;;;;;15.23;44.02;101862.00;5071734;28;20064;-66
2022/05/04 00:07:38;;;;;;;6.28;2.33;;;;;;;15.21;43.95;101877.63;5082119;28;20418;-65
2022/05/04 00:10:07;;;;;;;7.35;2.85;;;;;;;15.19;44.17;101873.50;5072725;28;20049;-66
2022/05/04 00:12:35;;;;;;;6.30;2.70;;;;;;;15.19;43.91;101871.63;5074962;28;20068;-65
2022/05/04 00:15:06;;;;;;;11.15;3.17;;;;;;;15.18;44.10;101872.69;5072412;28;20052;-65
2022/05/04 00:17:34;;;;;;;11.38;3.13;;;;;;;15.17;44.13;101878.31;5072157;28;20065;-66
2022/05/04 00:20:01;;;;;;;11.80;3.78;;;;;;;15.15;43.94;101875.84;5082392;28;20055;-66
2022/05/04 00:22:29;;;;;;;7.95;3.72;;;;;;;15.14;43.89;101874.19;5080223;28;20116;-66
2022/05/04 00:24:57;;;;;;;9.02;3.05;;;;;;;15.02;43.64;101853.50;5082493;28;20129;-65
2022/05/04 00:27:24;;;;;;;12.13;3.75;;;;;;;15.11;43.96;101873.81;5081561;28;20113;-66
2022/05/04 00:29:52;;;;;;;10.82;2.53;;;;;;;15.09;43.72;101870.50;5068981;28;20135;-65
2022/05/04 00:32:22;;;;;;;7.43;2.50;;;;;;;15.08;43.72;101872.38;5083168;28;20100;-65
2022/05/04 00:34:50;;;;;;;9.40;2.80;;;;;;;15.06;44.05;101870.94;5072677;28;20142;-65
2022/05/04 00:37:18;;;;;;;10.45;3.17;;;;;;;15.04;43.67;101868.47;5079515;28;20071;-66
2022/05/04 00:39:47;;;;;;;7.93;2.58;;;;;;;15.03;43.96;101879.53;5083031;28;20131;-66
2022/05/04 00:42:17;;;;;;;6.50;2.88;;;;;;;15.01;43.63;101868.94;5083454;28;20062;-66
2022/05/04 00:44:47;;;;;;;9.20;3.03;;;;;;;14.94;43.42;101869.00;5079315;28;20067;-65
2022/05/04 00:47:15;;;;;;;12.13;3.80;;;;;;;14.98;43.91;101875.63;5076566;28;20088;-66
2022/05/04 00:49:47;;;;;;;8.07;2.20;;;;;;;14.96;43.72;101879.59;5073697;28;20080;-66
2022/05/04 00:52:16;;;;;;;7.25;2.55;;;;;;;14.93;43.60;101872.75;5083359;28;20087;-66
2022/05/04 00:54:47;;;;;;;8.60;2.70;;;;;;;14.91;43.71;101871.34;5076385;28;20052;-66
2022/05/04 00:58:54;;;;;;;7.20;2.22;;;;;;;14.91;43.72;101876.75;5079452;28;20075;-65
2022/05/04 01:00:06;;;;;;;10.27;3.10;;;;;;;14.87;43.54;101868.25;5074338;28;20048;-66
2022/05/04 01:02:34;;;;;;;8.38;2.75;;;;;;;14.85;43.69;101870.34;5074783;28;20136;-65
2022/05/04 01:05:03;;;;;;;7.90;3.03;;;;;;;14.82;43.94;101864.56;5074771;28;20112;-65
2022/05/04 01:07:31;;;;;;;9.63;3.55;;;;;;;14.81;43.83;101861.03;5070564;28;20131;-66
2022/05/04 01:09:59;;;;;;;8.35;2.83;;;;;;;14.80;43.64;101869.38;5079384;28;20064;-66
2022/05/04 01:12:27;;;;;;;8.10;2.50;;;;;;;14.78;43.66;101855.25;5071800;28;20084;-66
2022/05/04 01:14:54;;;;;;;7.32;2.83;;;;;;;14.78;43.71;101864.19;5070442;28;20082;-65
2022/05/04 01:17:22;;;;;;;7.20;2.85;;;;;;;14.77;43.88;101862.53;5078472;28;20048;-66
2022/05/04 01:19:50;;;;;;;13.00;2.95;;;;;;;14.76;43.85;101860.06;5077882;28;20076;-66
2022/05/04 01:22:20;;;;;;;7.47;2.65;;;;;;;14.74;44.18;101862.97;5080767;28;20048;-65
2022/05/04 01:24:47;;;;;;;7.63;2.42;;;;;;;14.73;43.87;101869.44;5068038;28;20084;-66
2022/05/04 01:27:15;;;;;;;8.85;3.33;;;;;;;14.73;44.28;101869.44;5073843;28;20049;-65
2022/05/04 01:29:43;;;;;;;7.07;2.75;;;;;;;14.73;44.34;101868.63;5062002;28;20172;-66
2022/05/04 01:32:10;;;;;;;9.48;2.80;;;;;;;14.71;43.93;101865.31;5076288;28;20045;-66
2022/05/04 01:34:38;;;;;;;7.25;2.90;;;;;;;14.69;44.12;101867.41;5077453;28;20072;-66
2022/05/04 01:37:12;;;;;;;6.50;2.88;;;;;;;14.66;44.20;101863.28;5072242;28;20588;-65
2022/05/04 01:39:41;;;;;;;8.50;2.92;;;;;;;14.68;43.90;101865.75;5080822;28;20494;-65
2022/05/04 01:42:13;;;;;;;7.72;2.70;;;;;;;14.67;44.46;101861.41;5083209;28;20159;-65
2022/05/04 01:44:42;;;;;;;7.38;2.45;;;;;;;14.58;44.42;101852.75;5073867;28;20474;-66
2022/05/04 01:47:10;;;;;;;10.88;3.15;;;;;;;14.63;44.48;101858.31;5071441;28;20116;-66
2022/05/04 01:49:39;;;;;;;8.02;2.83;;;;;;;14.62;44.09;101860.19;5079347;28;20049;-65
2022/05/04 01:52:07;;;;;;;12.25;3.95;;;;;;;14.61;44.36;101871.22;5082455;28;20078;-66
2022/05/04 01:54:35;;;;;;;8.00;2.55;;;;;;;14.61;44.22;101868.53;5079792;28;20048;-65
2022/05/04 01:57:05;;;;;;;5.72;2.65;;;;;;;14.60;44.39;101861.47;5075195;28;20132;-66
2022/05/04 01:59:33;;;;;;;7.63;3.40;;;;;;;14.59;44.19;101863.34;5071675;28;20480;-65
2022/05/04 02:02:00;;;;;;;9.27;2.72;;;;;;;14.60;44.43;101861.47;5072539;28;20096;-66
2022/05/04 02:04:28;;;;;;;8.65;3.08;;;;;;;14.59;44.16;101857.94;5077046;28;20048;-66
2022/05/04 02:06:56;;;;;;;11.48;4.65;;;;;;;14.58;44.16;101867.09;5081621;28;20378;-66
2022/05/04 02:09:24;;;;;;;10.68;3.70;;;;;;;14.57;44.19;101864.63;5081899;28;20078;-65
2022/05/04 02:11:52;;;;;;;9.52;2.90;;;;;;;14.56;44.06;101861.09;5077977;28;20115;-65
2022/05/04 02:14:21;;;;;;;6.00;2.67;;;;;;;14.56;44.20;101865.66;5083987;28;20117;-66
2022/05/04 02:16:48;;;;;;;9.25;3.35;;;;;;;14.55;44.20;101866.72;5074620;28;20048;-66
2022/05/04 02:19:16;;;;;;;10.32;3.35;;;;;;;14.54;44.26;101862.34;5086468;28;20434;-65
2022/05/04 02:21:44;;;;;;;14.32;4.65;;;;;;;14.52;44.65;101853.63;5083211;28;20072;-65
2022/05/04 02:24:12;;;;;;;12.20;2.97;;;;;;;14.49;44.23;101851.38;5065836;28;20116;-66
2022/05/04 02:26:40;;;;;;;6.82;2.70;;;;;;;14.49;44.71;101841.38;5081019;28;20052;-66
2022/05/04 02:29:07;;;;;;;7.30;2.60;;;;;;;14.48;44.26;101845.13;5075220;28;20044;-65
2022/05/04 02:31:36;;;;;;;7.60;2.72;;;;;;;14.48;44.45;101849.72;5080716;28;20152;-65
2022/05/04 02:34:04;;;;;;;9.68;3.38;;;;;;;14.45;44.27;101842.06;5085266;28;20112;-66
2022/05/04 02:39:17;;;;;;;10.43;3.20;;;;;;;14.44;44.62;101848.50;5079755;28;20194;-65
2022/05/04 02:41:48;;;;;;;8.82;4.15;;;;;;;14.42;44.72;101840.63;5079123;28;20048;-66
2022/05/04 02:44:16;;;;;;;11.30;3.13;;;;;;;14.42;44.59;101839.78;5073973;28;20072;-66
2022/05/04 02:46:48;;;;;;;11.77;3.22;;;;;;;14.40;44.40;101844.56;5073463;28;20072;-66
2022/05/04 02:49:16;;;;;;;8.85;2.70;;;;;;;14.34;44.72;101832.75;5082016;28;20430;-66
2022/05/04 02:51:43;;;;;;;15.13;3.85;;;;;;;14.36;44.73;101841.47;5079188;28;20064;-66
2022/05/04 02:54:11;;;;;;;8.55;3.42;;;;;;;14.35;44.64;101839.81;5081391;28;20076;-65
2022/05/04 02:56:39;;;;;;;11.40;3.33;;;;;;;14.34;44.74;101841.69;5077798;28;20067;-66
2022/05/04 02:59:07;;;;;;;9.98;2.85;;;;;;;14.33;44.99;101845.47;5083805;28;20533;-66
2022/05/04 03:04:22;;;;;;;6.88;2.80;;;;;;;14.30;44.85;101836.97;5071007;28;20083;-66
2022/05/04 03:06:49;;;;;;;9.13;2.85;;;;;;;14.28;44.55;101834.47;5065277;28;20490;-65
2022/05/04 03:09:17;;;;;;;6.85;2.80;;;;;;;14.28;44.64;101830.94;5064379;28;20084;-66
2022/05/04 03:11:57;;;;;;;7.68;2.33;;;;;;;14.25;44.71;101834.91;5069680;28;20053;-66
2022/05/04 03:14:26;;;;;;;8.88;2.88;;;;;;;14.25;45.02;101836.81;5074491;28;20048;-65
2022/05/04 03:16:54;;;;;;;10.35;2.83;;;;;;;14.22;45.05;101829.97;5077759;28;20048;-65
2022/05/04 03:19:24;;;;;;;9.23;2.65;;;;;;;14.09;44.69;101802.22;5071887;28;20044;-65
2022/05/04 03:21:53;;;;;;;11.65;3.45;;;;;;;14.22;44.69;101821.03;5067804;28;20052;-65
2022/05/04 03:24:21;;;;;;;5.97;2.53;;;;;;;14.18;45.14;101823.34;5080203;28;20067;-65
2022/05/04 03:26:49;;;;;;;8.65;3.45;;;;;;;14.20;44.60;101829.34;5075978;28;20048;-66
2022/05/04 03:29:16;;;;;;;7.35;3.13;;;;;;;14.19;44.83;101824.16;5084178;28;20052;-65
2022/05/04 03:31:44;;;;;;;10.57;3.70;;;;;;;14.17;44.97;101829.78;5077368;28;20059;-66
2022/05/04 03:34:13;;;;;;;7.97;2.58;;;;;;;14.18;44.68;101830.63;5087185;28;20104;-65
2022/05/04 03:36:42;;;;;;;6.50;2.45;;;;;;;14.16;44.72;101824.59;5084797;28;20059;-65
2022/05/04 03:39:10;;;;;;;10.40;2.75;;;;;;;14.14;45.14;101826.72;5086940;28;20040;-66
2022/05/04 03:41:38;;;;;;;7.13;3.40;;;;;;;14.13;44.94;101828.59;5084020;28;20048;-66
2022/05/04 03:44:07;;;;;;;7.40;2.72;;;;;;;14.12;44.69;101824.22;5083820;28;20508;-65
2022/05/04 03:46:43;;;;;;;8.05;2.78;;;;;;;14.12;44.82;101826.94;5080774;28;20057;-65
2022/05/04 03:49:11;;;;;;;6.78;2.88;;;;;;;14.11;44.81;101825.28;5077590;28;20084;-65
2022/05/04 03:51:39;;;;;;;10.48;3.08;;;;;;;14.11;44.99;101830.69;5074049;28;20087;-65
2022/05/04 03:54:09;;;;;;;7.88;2.53;;;;;;;14.10;45.09;101823.63;5082605;28;20055;-65
2022/05/04 03:56:37;;;;;;;6.90;2.50;;;;;;;14.08;44.85;101825.72;5083878;28;20555;-66
2022/05/04 03:59:06;;;;;;;9.57;3.25;;;;;;;14.07;45.14;101824.06;5068244;28;20059;-66
2022/05/04 04:01:34;;;;;;;10.43;3.10;;;;;;;14.09;45.21;101834.66;5083957;28;20075;-65
2022/05/04 04:04:03;;;;;;;5.65;3.03;;;;;;;14.08;44.75;101833.81;5070486;28;20044;-65
2022/05/04 04:06:32;;;;;;;9.05;3.10;;;;;;;14.06;45.22;101826.97;5069936;28;20052;-66
2022/05/04 04:09:00;;;;;;;13.48;3.35;;;;;;;14.04;45.26;101827.22;5081048;28;20373;-65
2022/05/04 04:11:30;;;;;;;9.00;3.13;;;;;;;14.04;44.96;101827.22;5080967;28;20111;-65
2022/05/04 04:13:58;;;;;;;11.38;3.15;;;;;;;14.02;45.13;101824.72;5066949;28;20073;-65
2022/05/04 04:16:26;;;;;;;8.15;3.08;;;;;;;14.01;45.24;101820.38;5068735;28;20729;-65
2022/05/04 04:18:54;;;;;;;7.35;2.60;;;;;;;14.01;44.74;101822.25;5081516;28;20052;-65
2022/05/04 04:24:08;;;;;;;11.63;3.30;;;;;;;13.99;45.25;101825.16;5076066;28;20083;-65
2022/05/04 04:26:38;;;;;;;10.80;2.90;;;;;;;13.99;44.92;101822.47;5074387;28;20100;-65
2022/05/04 04:29:06;;;;;;;9.68;3.17;;;;;;;13.99;44.70;101825.16;5079313;28;20052;-66
2022/05/04 04:31:34;;;;;;;9.43;3.40;;;;;;;13.93;44.71;101815.25;5080952;28;20048;-66
2022/05/04 04:34:03;;;;;;;10.73;3.25;;;;;;;13.91;44.89;101822.72;5085070;28;20056;-65
2022/05/04 04:36:37;;;;;;;9.15;2.83;;;;;;;13.93;44.75;101827.91;5066426;28;20106;-65
2022/05/04 04:39:05;;;;;;;6.97;2.55;;;;;;;13.87;45.00;101816.13;5084574;28;20048;-65
2022/05/04 04:41:33;;;;;;;10.05;3.80;;;;;;;13.89;44.92;101830.22;5082323;28;20064;-65
2022/05/04 04:44:02;;;;;;;9.45;2.53;;;;;;;13.88;45.11;101833.97;5079549;28;20076;-65
2022/05/04 04:46:30;;;;;;;7.82;3.05;;;;;;;13.86;44.87;101833.41;5082104;28;20087;-65
2022/05/04 04:48:59;;;;;;;15.27;3.63;;;;;;;13.83;45.30;101835.72;5075845;28;20049;-66
2022/05/04 04:51:26;;;;;;;8.65;2.95;;;;;;;13.83;45.29;101824.91;5069585;28;20533;-65
2022/05/04 04:53:54;;;;;;;17.38;3.90;;;;;;;13.83;44.90;101831.16;5067931;28;20111;-64
2022/05/04 04:56:22;;;;;;;8.82;3.38;;;;;;;13.81;44.80;101829.72;5072585;28;20416;-65
2022/05/04 04:58:49;;;;;;;10.07;3.10;;;;;;;13.81;45.16;101830.53;5075273;28;20334;-64
2022/05/04 05:01:19;;;;;;;10.38;3.03;;;;;;;13.82;45.38;101837.59;5070777;28;20090;-64
2022/05/04 05:03:47;;;;;;;7.43;2.83;;;;;;;13.81;45.22;101848.63;5078096;28;20067;-65
2022/05/04 05:06:15;;;;;;;7.88;2.95;;;;;;;13.80;44.98;101836.16;5068616;28;20117;-63
2022/05/04 05:08:42;;;;;;;10.85;3.45;;;;;;;13.78;45.26;101839.06;5074367;28;20080;-67
2022/05/04 05:11:10;;;;;;;8.65;3.08;;;;;;;13.73;45.03;101829.97;5073413;28;20087;-65
2022/05/04 05:16:06;;;;;;;9.15;3.90;;;;;;;13.76;45.20;101838.47;5069406;28;20083;-65
2022/05/04 05:16:26;;;;;;;6.65;2.92;;;;;;;13.71;45.57;101837.47;5070566;28;20450;-64
2022/05/04 05:18:54;;;;;;;8.75;3.08;;;;;;;13.74;45.46;101834.34;5073479;28;20416;-65
2022/05/04 05:21:22;;;;;;;7.90;2.80;;;;;;;13.73;45.04;101841.59;5078177;28;20087;-67
2022/05/04 05:23:49;;;;;;;8.27;3.63;;;;;;;13.71;45.25;101849.09;5080437;28;20088;-66
2022/05/04 05:26:17;;;;;;;10.77;3.67;;;;;;;13.71;45.49;101843.69;5073319;28;20052;-70
2022/05/04 05:28:46;;;;;;;13.48;3.40;;;;;;;13.70;45.46;101844.75;5071707;28;20061;-65
2022/05/04 05:31:14;;;;;;;6.05;2.67;;;;;;;13.72;45.35;101847.22;5072033;28;20044;-66
2022/05/04 05:33:45;;;;;;;9.00;2.85;;;;;;;13.73;45.56;101847.00;5074030;28;20053;-66
2022/05/04 05:36:13;;;;;;;6.50;3.38;;;;;;;13.72;45.35;101848.06;5080826;28;20056;-64
2022/05/04 05:38:40;;;;;;;11.65;3.50;;;;;;;13.68;46.47;101847.66;5078756;28;20052;-67
2022/05/04 05:41:08;;;;;;;13.25;4.78;;;;;;;13.64;45.74;101848.31;5078929;28;20140;-66
2022/05/04 05:43:36;;;;;;;9.60;3.40;;;;;;;13.60;45.66;101839.00;5076463;28;20116;-66
2022/05/04 05:46:03;;;;;;;12.85;3.72;;;;;;;13.68;45.52;101852.25;5085411;28;20075;-65
2022/05/04 05:48:31;;;;;;;14.55;3.85;;;;;;;13.67;45.82;101848.72;5082188;28;20055;-66
2022/05/04 05:51:04;;;;;;;12.00;3.33;;;;;;;13.62;45.64;101824.22;5084960;28;20071;-66
2022/05/04 05:53:32;;;;;;;12.70;4.03;;;;;;;13.73;45.85;101848.88;5087111;28;20049;-66
2022/05/04 05:56:00;;;;;;;11.38;3.40;;;;;;;13.73;45.43;101847.00;5082968;28;20049;-66
2022/05/04 05:58:28;;;;;;;9.60;2.80;;;;;;;13.75;45.53;101854.91;5083632;28;20075;-65
2022/05/04 06:00:56;;;;;;;7.55;2.95;;;;;;;13.74;45.43;101843.25;5085308;28;20098;-66
2022/05/04 06:03:23;;;;;;;10.70;4.03;;;;;;;13.77;45.65;101842.81;5082580;28;20536;-65
2022/05/04 06:05:51;;;;;;;12.70;3.40;;;;;;;13.78;45.51;101846.34;5073266;28;20076;-65
2022/05/04 06:08:20;;;;;;;11.20;3.55;;;;;;;13.80;45.52;101857.78;5073155;28;20075;-66
2022/05/04 06:10:48;;;;;;;12.98;3.72;;;;;;;13.79;45.55;101859.66;5085899;28;20542;-66
2022/05/04 06:13:16;;;;;;;7.28;2.92;;;;;;;13.80;45.52;101855.91;5079119;28;20052;-66
2022/05/04 06:15:43;;;;;;;16.77;3.53;;;;;;;13.79;45.38;101853.41;5070131;28;20051;-65
2022/05/04 06:18:12;;;;;;;8.07;3.67;;;;;;;13.80;45.38;101864.00;5075838;28;20143;-66
2022/05/04 06:20:39;;;;;;;12.07;2.95;;;;;;;13.82;45.06;101869.19;5085409;28;20559;-66
2022/05/04 06:23:08;;;;;;;11.60;3.80;;;;;;;13.81;45.47;101871.06;5083833;28;20049;-65
2022/05/04 06:25:37;;;;;;;8.63;3.47;;;;;;;13.80;45.41;101866.72;5072604;28;20070;-66
2022/05/04 06:28:06;;;;;;;7.05;3.00;;;;;;;13.79;45.51;101875.84;5076165;28;20052;-66
2022/05/04 06:36:05;;;;;;;10.73;3.60;;;;;;;13.76;45.72;101872.75;5073065;28;20041;-66
2022/05/04 06:38:32;;;;;;;11.18;3.20;;;;;;;13.76;45.24;101864.66;5083570;28;20052;-66
2022/05/04 06:41:03;;;;;;;8.07;3.53;;;;;;;13.76;45.22;101870.88;5079527;28;20064;-66
2022/05/04 06:43:31;;;;;;;9.80;3.75;;;;;;;13.77;45.52;101866.31;5085259;28;20048;-65
2022/05/04 06:45:59;;;;;;;11.20;2.78;;;;;;;13.76;45.60;101868.19;5081454;28;20044;-66
2022/05/04 06:48:26;;;;;;;10.23;2.90;;;;;;;13.78;45.45;101867.97;5082174;28;20477;-65
2022/05/04 06:50:54;;;;;;;10.88;2.80;;;;;;;13.79;45.37;101875.03;5073854;28;20208;-65
2022/05/04 06:53:22;;;;;;;7.47;3.00;;;;;;;13.81;45.53;101881.03;5084145;28;20048;-67
2022/05/04 06:55:50;;;;;;;7.40;2.25;;;;;;;13.81;45.15;101873.75;5071554;28;20049;-65
2022/05/04 06:58:19;;;;;;;10.10;3.30;;;;;;;13.71;45.59;101848.28;5077257;28;20076;-68
2022/05/04 07:00:47;;;;;;;9.85;2.97;;;;;;;13.87;45.47;101878.28;5084358;28;20040;-64
2022/05/04 07:03:15;;;;;;;8.93;3.08;;;;;;;13.83;45.60;101871.69;5083969;28;20543;-67
2022/05/04 07:05:43;;;;;;;7.85;2.95;;;;;;;13.91;45.35;101874.09;5080991;28;20075;-66
2022/05/04 07:08:11;;;;;;;7.65;3.22;;;;;;;13.94;45.36;101875.53;5082373;28;20056;-65
2022/05/04 07:10:39;;;;;;;12.65;3.80;;;;;;;13.94;45.80;101873.66;5074102;28;20076;-66
2022/05/04 07:13:07;;;;;;;10.20;3.58;;;;;;;13.92;45.76;101869.50;5080573;28;20075;-66
2022/05/04 07:15:36;;;;;;;13.45;4.05;;;;;;;13.86;46.00;101865.84;5074260;28;20041;-63
2022/05/04 07:18:05;;;;;;;15.40;4.25;;;;;;;13.87;46.25;101872.03;5083399;28;20048;-66
2022/05/04 07:20:32;;;;;;;11.73;4.65;;;;;;;13.82;46.01;101870.03;5079892;28;20119;-65
2022/05/04 07:23:00;;;;;;;10.02;3.38;;;;;;;13.85;46.12;101871.47;5082491;28;20066;-64
2022/05/04 07:25:28;;;;;;;12.85;4.57;;;;;;;13.85;46.37;101868.75;5073191;28;20063;-65
2022/05/04 07:27:56;;;;;;;11.38;3.65;;;;;;;13.86;45.99;101865.84;5083215;28;20147;-65
2022/05/04 07:30:23;;;;;;;7.68;3.30;;;;;;;13.86;46.02;101862.31;5068862;28;20048;-66
2022/05/04 07:32:52;;;;;;;38.00;4.35;;;;;;;13.86;45.96;101868.53;5072577;28;20435;-65
2022/05/04 07:35:20;;;;;;;21.45;4.70;;;;;;;13.87;46.34;101870.16;5075277;28;20162;-65
2022/05/04 07:37:49;;;;;;;34.85;5.05;;;;;;;13.89;46.49;101862.66;5074522;28;20358;-65
2022/05/04 07:43:02;;;;;;;29.45;5.28;;;;;;;13.94;46.50;101870.13;5082609;28;20354;-65
2022/05/04 07:45:30;;;;;;;17.65;3.67;;;;;;;13.93;45.91;101865.75;5079006;28;20081;-66
2022/05/04 07:47:59;;;;;;;18.52;5.63;;;;;;;13.97;46.11;101877.78;5081929;28;20048;-66
2022/05/04 07:50:28;;;;;;;11.27;4.00;;;;;;;13.96;46.19;101873.44;5083019;28;20077;-65
2022/05/04 07:52:56;;;;;;;11.07;4.15;;;;;;;13.97;46.35;101872.38;5073540;28;20102;-66
2022/05/04 07:55:24;;;;;;;10.98;3.58;;;;;;;14.00;46.23;101885.44;5079180;28;20055;-66
2022/05/04 07:57:52;;;;;;;12.88;4.72;;;;;;;13.99;46.11;101876.53;5073723;28;20048;-66
2022/05/04 08:05:56;;;;;;;11.57;4.38;;;;;;;14.01;46.54;101871.72;5076633;28;20066;-66
2022/05/04 08:08:24;;;;;;;8.55;3.50;;;;;;;13.95;46.37;101860.97;5072742;28;20057;-66
2022/05/04 08:10:52;;;;;;;10.27;3.60;;;;;;;14.05;46.48;101872.09;5078716;28;20083;-65
2022/05/04 08:13:20;;;;;;;10.63;4.05;;;;;;;14.01;46.88;101863.63;5084404;28;20053;-66
2022/05/04 08:15:48;;;;;;;11.25;4.10;;;;;;;14.08;47.01;101876.25;5078623;28;20076;-65
2022/05/04 08:18:17;;;;;;;9.85;3.03;;;;;;;14.10;46.62;101879.56;5071260;28;20045;-66
2022/05/04 08:20:45;;;;;;;9.18;4.25;;;;;;;14.11;46.80;101873.94;5082499;28;20071;-66
2022/05/04 08:23:12;;;;;;;11.18;4.10;;;;;;;14.14;47.07;101872.66;5084315;28;20056;-66
2022/05/04 08:25:40;;;;;;;12.77;3.80;;;;;;;14.17;46.82;101874.94;5082376;28;20071;-66
2022/05/04 08:28:09;;;;;;;10.70;4.53;;;;;;;14.17;46.33;101873.06;5075855;28;20139;-65
2022/05/04 08:30:36;;;;;;;8.95;3.72;;;;;;;14.17;46.41;101875.75;5069219;28;20092;-66
2022/05/04 08:33:04;;;;;;;12.40;4.45;;;;;;;14.17;46.16;101869.53;5079304;28;20068;-66
2022/05/04 08:35:33;;;;;;;12.77;3.55;;;;;;;14.20;46.47;101869.09;5079406;28;20071;-66
2022/05/04 08:38:01;;;;;;;16.00;3.67;;;;;;;14.21;46.50;101865.31;5070834;28;20163;-65
2022/05/04 08:40:29;;;;;;;8.35;3.92;;;;;;;14.20;46.36;101869.09;5083577;28;20510;-65
2022/05/04 08:43:00;;;;;;;8.63;3.60;;;;;;;14.20;46.59;101860.97;5083942;28;20478;-65
2022/05/04 08:45:28;;;;;;;13.98;4.63;;;;;;;14.24;46.48;101862.19;5080307;28;20048;-65
2022/05/04 08:47:57;;;;;;;10.93;4.22;;;;;;;14.26;46.97;101863.63;5076034;28;20059;-66
2022/05/04 08:50:24;;;;;;;13.70;4.55;;;;;;;14.28;46.99;101866.09;5069867;28;20097;-66
2022/05/04 08:52:55;;;;;;;13.02;4.95;;;;;;;14.18;47.30;101849.56;5077423;28;20052;-65
2022/05/04 08:55:23;;;;;;;9.60;4.38;;;;;;;14.31;46.81;101863.78;5081136;28;20044;-66
2022/05/04 08:57:54;;;;;;;9.95;4.60;;;;;;;14.34;47.49;101865.22;5081229;28;20048;-66
2022/05/04 09:00:22;;;;;;;9.95;4.55;;;;;;;14.37;47.33;101859.38;5083429;28;20051;-66
2022/05/04 09:02:50;;;;;;;10.65;5.00;;;;;;;14.40;45.98;101866.19;5078451;28;20059;-65
2022/05/04 09:05:20;;;;;;;7.78;4.47;;;;;;;14.40;46.26;101860.78;5075656;28;20113;-65
2022/05/04 09:07:50;;;;;;;10.70;4.97;;;;;;;14.39;46.52;101854.56;5067901;28;20082;-65
2022/05/04 09:10:21;;;;;;;9.93;4.45;;;;;;;14.43;46.69;101855.81;5073893;28;20080;-65
2022/05/04 09:12:50;;;;;;;15.25;4.88;;;;;;;14.45;46.73;101861.00;5076393;28;20087;-66
2022/05/04 09:15:20;;;;;;;14.60;4.50;;;;;;;14.48;46.77;101852.44;5071372;28;20067;-65
2022/05/04 09:17:55;;;;;;;14.00;4.78;;;;;;;14.59;47.02;101854.41;5074660;28;20052;-65
2022/05/04 09:23:12;;;;;;;10.15;5.28;;;;;;;14.65;47.01;101848.09;5073399;28;20076;-66
2022/05/04 09:25:41;;;;;;;12.55;4.50;;;;;;;14.68;46.72;101844.09;5073649;28;20095;-66
2022/05/04 09:28:11;;;;;;;10.10;4.80;;;;;;;14.70;46.75;101842.84;5071189;28;20072;-66
2022/05/04 09:30:48;;;;;;;8.38;4.30;;;;;;;14.74;46.86;101845.91;5071404;28;20049;-65
2022/05/04 09:33:20;;;;;;;12.63;5.00;;;;;;;14.78;46.77;101847.94;5069093;28;20450;-66
2022/05/04 09:35:49;;;;;;;20.08;4.75;;;;;;;14.80;45.97;101842.31;5072433;28;20056;-66
2022/05/04 09:46:37;;;;;;;11.75;4.72;;;;;;;14.86;45.90;101844.94;5081377;28;20084;-65
2022/05/04 09:49:10;;;;;;;12.55;4.72;;;;;;;14.85;46.06;101846.00;5077543;28;20136;-65
2022/05/04 09:51:39;;;;;;;9.57;4.38;;;;;;;14.87;45.42;101834.94;5074221;28;20060;-63
2022/05/04 09:54:14;;;;;;;12.85;4.85;;;;;;;14.94;45.93;101839.22;4718001;28;10000179;-64
2022/05/04 09:56:43;;;;;;;13.82;5.32;;;;;;;14.98;45.66;101834.19;5070802;28;20143;-65
2022/05/04 09:59:12;;;;;;;11.45;4.22;;;;;;;15.01;45.71;101831.03;5072893;28;20121;-65
2022/05/04 10:01:41;;;;;;;12.95;5.03;;;;;;;15.06;45.76;101835.75;5073217;28;20048;-66
2022/05/04 10:04:10;;;;;;;11.32;4.40;;;;;;;15.06;45.60;101825.75;5079393;28;20106;-64
2022/05/04 10:06:38;;;;;;;9.77;3.92;;;;;;;15.11;45.86;101825.06;5073387;28;20075;-64
2022/05/04 10:09:07;;;;;;;9.52;4.03;;;;;;;15.12;45.90;101826.72;5075523;28;20205;-64
2022/05/04 10:11:35;;;;;;;11.10;3.90;;;;;;;15.18;45.96;101823.09;5075367;28;20080;-64
2022/05/04 10:14:08;;;;;;;7.72;3.47;;;;;;;15.20;46.50;101827.25;5071540;28;20052;-64
2022/05/04 10:16:41;;;;;;;13.27;4.72;;;;;;;15.22;45.53;101822.41;5063506;28;20493;-64
2022/05/04 10:19:16;;;;;;;9.95;4.28;;;;;;;15.26;45.52;101822.78;5071153;28;20306;-64
2022/05/04 10:21:45;;;;;;;9.20;4.35;;;;;;;15.29;45.45;101822.34;5073296;28;20139;-65
2022/05/04 10:24:14;;;;;;;11.82;4.10;;;;;;;15.31;45.16;101817.50;5070724;28;20083;-65
2022/05/04 10:26:44;;;;;;;11.32;4.95;;;;;;;15.33;45.56;101815.41;5069045;28;20447;-64
2022/05/04 10:32:09;;;;;;;11.55;4.10;;;;;;;15.46;45.93;101814.38;5075909;28;20132;-64
2022/05/04 10:34:42;;;;;;;12.30;4.50;;;;;;;15.52;45.48;101816.16;5083460;28;20079;-64
2022/05/04 10:37:10;;;;;;;9.27;4.07;;;;;;;15.57;45.34;101814.47;5078172;28;20053;-64
2022/05/04 10:39:40;;;;;;;9.60;4.70;;;;;;;15.62;45.33;101814.56;5081129;28;20048;-63
2022/05/04 10:42:54;;;;;;;7.22;4.07;;;;;;;15.65;45.17;101815.16;5084990;28;20459;-63
2022/05/04 10:45:29;;;;;;;8.75;3.97;;;;;;;15.69;44.86;101811.75;5079552;28;20060;-64
2022/05/04 10:48:29;;;;;;;8.02;4.18;;;;;;;15.73;45.09;101823.78;5074549;28;20469;-64
2022/05/04 10:51:11;;;;;;;8.77;4.20;;;;;;;15.81;44.77;101817.19;5067252;28;20144;-64
2022/05/04 10:53:44;;;;;;;13.65;4.95;;;;;;;15.78;44.44;101807.63;5082738;28;20044;-64
2022/05/04 10:56:14;;;;;;;11.18;4.70;;;;;;;15.83;44.42;101810.47;5085690;28;20076;-64
2022/05/04 10:58:45;;;;;;;11.25;4.53;;;;;;;15.88;44.57;101807.06;5074600;28;20056;-63
2022/05/04 11:01:17;;;;;;;9.38;4.30;;;;;;;15.90;44.36;101808.47;5084798;28;20052;-64
2022/05/04 11:03:56;;;;;;;9.98;3.90;;;;;;;16.00;45.00;101812.50;5079312;28;20055;-64
2022/05/04 11:06:29;;;;;;;8.68;4.18;;;;;;;16.12;44.01;101811.47;5081307;28;20056;-64
2022/05/04 11:08:59;;;;;;;9.38;4.40;;;;;;;16.19;44.22;101793.19;5083719;28;20079;-63
2022/05/04 11:11:27;;;;;;;9.35;3.92;;;;;;;16.27;44.22;101811.00;5079060;28;20151;-63
2022/05/04 11:13:55;;;;;;;12.05;4.57;;;;;;;16.29;44.51;101798.00;5077060;28;20079;-63
2022/05/04 11:16:26;;;;;;;9.85;3.85;;;;;;;16.32;44.19;101799.44;5071315;28;20127;-63
2022/05/04 11:18:54;;;;;;;10.50;4.15;;;;;;;16.31;43.99;101790.47;5075938;28;20139;-63
2022/05/04 11:21:22;;;;;;;11.07;4.10;;;;;;;16.33;43.25;101788.34;5075652;28;20079;-64
2022/05/04 11:23:52;;;;;;;11.48;4.78;;;;;;;16.36;43.33;101787.03;5080748;28;20048;-63
2022/05/04 11:26:21;;;;;;;12.55;4.60;;;;;;;16.41;43.31;101793.41;5085408;28;20087;-64
2022/05/04 11:28:50;;;;;;;11.82;4.43;;;;;;;16.46;43.46;101795.41;5079320;28;20072;-64
2022/05/04 11:31:19;;;;;;;9.27;3.75;;;;;;;16.48;43.75;101790.56;5079116;28;20113;-64
2022/05/04 11:33:50;;;;;;;11.73;3.67;;;;;;;16.55;43.52;101783.13;5077081;28;20056;-64
2022/05/04 11:36:19;;;;;;;6.80;4.45;;;;;;;16.63;42.68;101788.19;5081551;28;20569;-64
2022/05/04 11:38:48;;;;;;;9.43;3.90;;;;;;;16.68;43.06;101785.59;5074770;28;20045;-64
2022/05/04 11:41:17;;;;;;;10.70;4.22;;;;;;;16.68;42.42;101782.91;5078648;28;20064;-64
2022/05/04 11:43:45;;;;;;;8.13;3.83;;;;;;;16.71;42.24;101781.59;5081463;28;20059;-64
2022/05/04 11:46:13;;;;;;;9.05;3.83;;;;;;;16.79;41.03;101789.38;5070231;28;20052;-64
2022/05/04 11:48:43;;;;;;;7.75;3.60;;;;;;;16.82;40.89;101784.28;5075116;28;20456;-64
2022/05/04 11:51:14;;;;;;;10.82;4.25;;;;;;;16.85;40.47;101769.41;5081815;28;20063;-64
2022/05/04 11:53:42;;;;;;;12.40;4.10;;;;;;;16.85;40.46;101764.78;5078644;28;20068;-64
2022/05/04 11:56:11;;;;;;;13.20;4.20;;;;;;;16.88;40.90;101764.31;5076121;28;20095;-64
2022/05/04 11:58:39;;;;;;;11.23;3.97;;;;;;;16.89;40.66;101760.53;5082856;28;20071;-63
2022/05/04 12:01:08;;;;;;;17.13;4.25;;;;;;;16.95;41.22;101760.63;5067156;28;20053;-63
2022/05/04 12:03:39;;;;;;;9.60;3.90;;;;;;;16.97;41.44;101755.78;5078241;28;20135;-63
2022/05/04 12:06:09;;;;;;;11.30;3.95;;;;;;;17.03;41.09;101763.78;5081623;28;20072;-64